Time;durP1;ratioP1;P1;durP2;ratioP2;P2;SDS_P1;SDS_P2;PMS_P1;PMS_P2;Temp;Humidity;BMP_temperature;BMP_pressure;BME280_temperature;BME280_humidity;BME280_pressure;Samples;Min_cycle;Max_cycle;Signal;HPM_P1;HPM_P2
2023/03/21 08:58:51;;;;;;;1.73;1.17;;;11.90;99.90;;;;;;4288179;26;20713;-70
2023/03/21 09:01:18;;;;;;;3.63;1.47;;;12.00;99.90;;;;;;4938931;29;20211;-73
2023/03/21 09:03:44;;;;;;;1.87;1.10;;;12.10;99.90;;;;;;4939052;29;20225;-71
2023/03/21 09:06:13;;;;;;;5.53;1.30;;;12.20;99.90;;;;;;4935863;29;20244;-69
2023/03/21 09:08:40;;;;;;;2.33;1.07;;;12.40;99.90;;;;;;4938515;29;20224;-70
2023/03/21 09:11:07;;;;;;;5.30;1.23;;;12.70;99.90;;;;;;4938516;29;20260;-70
2023/03/21 09:13:34;;;;;;;4.33;1.47;;;13.00;99.90;;;;;;4938670;29;20583;-71
2023/03/21 09:16:03;;;;;;;0.90;0.80;;;13.10;99.90;;;;;;4939534;29;20212;-71
2023/03/21 09:18:44;;;;;;;8.40;1.20;;;13.30;99.90;;;;;;4938942;29;20213;-70
2023/03/21 09:21:13;;;;;;;4.40;1.50;;;13.50;99.90;;;;;;4938596;29;20209;-71
2023/03/21 09:23:40;;;;;;;3.57;1.00;;;13.30;99.90;;;;;;4938373;29;20312;-70
2023/03/21 09:26:08;;;;;;;1.93;1.23;;;13.20;99.90;;;;;;4936934;29;20263;-71
2023/03/21 09:28:37;;;;;;;6.63;1.10;;;13.10;99.90;;;;;;4935442;29;20617;-75
2023/03/21 09:31:07;;;;;;;3.53;1.07;;;13.10;99.90;;;;;;4935379;29;20384;-71
2023/03/21 09:33:34;;;;;;;3.27;1.60;;;12.90;99.90;;;;;;4937990;29;20235;-71
2023/03/21 09:36:05;;;;;;;1.97;1.10;;;12.90;99.90;;;;;;4936716;29;20719;-71
2023/03/21 09:38:35;;;;;;;5.23;1.10;;;12.80;99.90;;;;;;4936462;29;20664;-71
2023/03/21 09:41:16;;;;;;;3.43;1.17;;;12.90;99.90;;;;;;4937599;29;20262;-70
2023/03/21 09:43:56;;;;;;;4.23;1.23;;;12.80;99.90;;;;;;4936512;29;20268;-70
2023/03/21 09:46:34;;;;;;;3.87;1.40;;;12.80;99.90;;;;;;4937534;29;20703;-71
2023/03/21 09:49:06;;;;;;;1.93;1.00;;;12.60;99.90;;;;;;4936834;29;20564;-71
2023/03/21 09:51:36;;;;;;;3.20;1.10;;;12.70;99.90;;;;;;4937945;29;20212;-71
2023/03/21 09:54:07;;;;;;;4.87;1.13;;;12.80;99.90;;;;;;4936825;29;20514;-70
2023/03/21 09:56:36;;;;;;;4.27;1.13;;;12.90;99.90;;;;;;4936373;29;20205;-72
2023/03/21 09:59:06;;;;;;;4.50;1.00;;;13.10;99.90;;;;;;4936619;29;20288;-71
2023/03/21 10:01:44;;;;;;;4.07;1.57;;;13.50;99.90;;;;;;4937270;29;20209;-72
2023/03/21 10:04:14;;;;;;;3.47;1.10;;;13.50;99.90;;;;;;4937333;29;20233;-72
2023/03/21 10:06:44;;;;;;;2.53;1.37;;;13.60;99.90;;;;;;4936079;29;20775;-73
2023/03/21 10:09:15;;;;;;;6.00;1.27;;;13.60;99.90;;;;;;4937464;29;20542;-71
2023/03/21 10:11:46;;;;;;;4.77;1.30;;;13.60;99.90;;;;;;4937896;29;20212;-70
2023/03/21 10:14:18;;;;;;;2.50;1.40;;;13.70;99.90;;;;;;4937567;29;20225;-71
2023/03/21 10:16:51;;;;;;;2.63;1.00;;;13.70;99.90;;;;;;4936661;29;20208;-71
2023/03/21 10:19:20;;;;;;;2.57;1.00;;;13.80;99.90;;;;;;4936739;29;20216;-71
2023/03/21 10:21:49;;;;;;;2.07;0.93;;;14.00;99.90;;;;;;4935703;29;20209;-70
2023/03/21 10:24:19;;;;;;;2.90;1.10;;;13.90;99.90;;;;;;4936854;29;20288;-72
2023/03/21 10:26:47;;;;;;;5.17;1.10;;;13.90;99.90;;;;;;4935693;29;20636;-70
2023/03/21 10:29:17;;;;;;;2.30;1.10;;;13.90;99.90;;;;;;4937239;29;20260;-71
2023/03/21 10:31:46;;;;;;;4.80;1.13;;;13.80;99.90;;;;;;4936252;29;20609;-74
2023/03/21 10:34:18;;;;;;;1.17;0.73;;;14.00;99.90;;;;;;4936336;29;20233;-70
2023/03/21 10:36:45;;;;;;;2.77;0.90;;;14.00;99.90;;;;;;4936954;29;20698;-71
2023/03/21 10:39:21;;;;;;;2.13;1.23;;;14.10;99.90;;;;;;4935547;29;20211;-73
2023/03/21 10:41:48;;;;;;;2.73;1.27;;;13.90;99.90;;;;;;4936679;29;20468;-71
2023/03/21 10:44:17;;;;;;;2.23;1.07;;;14.00;99.90;;;;;;4932931;29;20704;-70
2023/03/21 10:46:52;;;;;;;1.63;0.90;;;14.10;99.90;;;;;;4935485;29;20237;-70
2023/03/21 10:49:20;;;;;;;2.93;1.20;;;14.30;99.90;;;;;;4936770;29;20323;-70
2023/03/21 10:51:49;;;;;;;2.47;1.00;;;14.30;99.90;;;;;;4937226;29;20300;-70
2023/03/21 10:54:20;;;;;;;2.90;1.00;;;14.40;99.90;;;;;;4935452;29;20311;-70
2023/03/21 10:56:55;;;;;;;5.13;1.10;;;14.70;99.90;;;;;;4935737;29;20220;-72
2023/03/21 10:59:23;;;;;;;2.23;0.90;;;14.90;99.90;;;;;;4935720;29;20208;-70
2023/03/21 11:01:54;;;;;;;2.37;0.97;;;15.10;99.90;;;;;;4932832;29;20216;-75
2023/03/21 11:04:24;;;;;;;5.23;1.60;;;15.00;99.90;;;;;;4930050;29;20291;-77
2023/03/21 11:06:54;;;;;;;2.17;0.90;;;15.00;99.90;;;;;;4934609;29;20254;-71
2023/03/21 11:09:23;;;;;;;2.17;0.80;;;15.30;99.90;;;;;;4936582;29;20204;-74
2023/03/21 11:11:53;;;;;;;2.00;1.00;;;15.10;99.90;;;;;;4936593;29;20675;-72
2023/03/21 11:14:41;;;;;;;3.00;1.13;;;15.00;99.90;;;;;;4935961;29;20232;-70
2023/03/21 11:17:22;;;;;;;3.57;1.40;;;15.10;99.90;;;;;;4933511;29;20219;-74
2023/03/21 11:19:50;;;;;;;3.60;1.20;;;15.10;99.90;;;;;;4936763;29;20287;-72
2023/03/21 11:22:18;;;;;;;2.97;1.20;;;15.20;99.90;;;;;;4936200;29;20223;-70
2023/03/21 11:24:50;;;;;;;3.77;1.40;;;15.40;99.90;;;;;;4936259;29;20229;-74
2023/03/21 11:27:17;;;;;;;2.00;1.30;;;15.20;99.90;;;;;;4936552;29;20291;-73
2023/03/21 11:29:48;;;;;;;2.50;1.20;;;14.90;99.90;;;;;;4935939;29;20205;-73
2023/03/21 11:32:23;;;;;;;1.80;1.27;;;14.90;99.90;;;;;;4935979;29;21463;-71
2023/03/21 11:34:53;;;;;;;4.33;1.30;;;14.90;99.90;;;;;;4936283;29;20227;-71
2023/03/21 11:37:26;;;;;;;2.17;1.17;;;14.80;99.90;;;;;;4936556;29;20299;-69
2023/03/21 11:39:56;;;;;;;2.97;1.40;;;14.50;99.90;;;;;;4936513;29;20584;-70
2023/03/21 11:42:29;;;;;;;2.20;1.20;;;14.80;99.90;;;;;;4936368;29;20208;-70
2023/03/21 11:45:11;;;;;;;2.27;1.37;;;15.20;99.90;;;;;;4936252;29;20350;-69
2023/03/21 11:47:40;;;;;;;6.30;1.67;;;15.50;99.90;;;;;;4935875;29;20247;-75
2023/03/21 11:50:20;;;;;;;2.47;1.30;;;16.00;99.90;;;;;;4936441;29;20208;-73
2023/03/21 11:53:06;;;;;;;4.63;1.47;;;15.80;99.90;;;;;;4936534;29;20295;-76
2023/03/21 11:55:41;;;;;;;4.73;1.70;;;15.70;99.90;;;;;;4936049;29;20600;-73
2023/03/21 11:58:32;;;;;;;2.80;1.37;;;15.60;99.90;;;;;;4936027;29;20216;-68
2023/03/21 12:01:08;;;;;;;4.93;1.87;;;15.40;99.90;;;;;;4936061;29;20217;-70
2023/03/21 12:03:58;;;;;;;3.33;1.30;;;15.30;99.90;;;;;;4935918;29;20256;-70
2023/03/21 12:06:32;;;;;;;2.57;1.43;;;15.10;99.90;;;;;;4935940;29;20549;-71
2023/03/21 12:09:21;;;;;;;2.73;1.37;;;15.00;99.90;;;;;;4936173;29;20211;-70
2023/03/21 12:12:07;;;;;;;2.53;1.13;;;14.90;99.90;;;;;;4935946;29;20209;-70
2023/03/21 12:14:43;;;;;;;2.70;1.30;;;15.10;99.90;;;;;;4935844;29;20260;-75
2023/03/21 12:17:22;;;;;;;2.23;1.20;;;15.20;99.90;;;;;;4936074;29;20220;-72
2023/03/21 12:20:08;;;;;;;4.23;1.60;;;15.20;99.90;;;;;;4936098;29;20303;-73
2023/03/21 12:22:44;;;;;;;3.37;1.20;;;15.10;99.90;;;;;;4935711;29;20212;-71
2023/03/21 12:25:15;;;;;;;2.13;1.27;;;15.10;99.90;;;;;;4935416;29;20232;-73
2023/03/21 12:27:52;;;;;;;3.77;1.00;;;15.20;99.90;;;;;;4935226;29;20275;-70
2023/03/21 12:30:32;;;;;;;6.07;1.57;;;15.30;99.90;;;;;;4935666;29;20569;-75
2023/03/21 12:33:14;;;;;;;4.60;1.87;;;15.60;99.90;;;;;;4935715;29;20204;-70
2023/03/21 12:36:01;;;;;;;2.80;1.20;;;15.80;99.90;;;;;;4935773;29;20205;-79
2023/03/21 12:38:38;;;;;;;1.30;0.90;;;16.10;99.90;;;;;;4935728;29;20223;-77
2023/03/21 12:41:20;;;;;;;2.70;1.23;;;16.50;99.90;;;;;;4935708;29;20209;-71
2023/03/21 12:43:53;;;;;;;1.50;1.10;;;16.30;99.90;;;;;;4935467;29;20229;-75
2023/03/21 12:46:25;;;;;;;1.47;1.00;;;16.10;99.90;;;;;;4935736;29;20204;-78
2023/03/21 12:48:57;;;;;;;3.07;1.10;;;16.00;99.90;;;;;;4935887;29;20217;-75
2023/03/21 12:51:31;;;;;;;4.17;1.20;;;15.90;99.90;;;;;;4935841;29;20236;-74
2023/03/21 12:54:04;;;;;;;2.40;1.30;;;16.00;99.90;;;;;;4936966;29;20229;-77
2023/03/21 12:56:34;;;;;;;3.30;1.13;;;16.20;99.90;;;;;;4936757;29;20230;-74
2023/03/21 12:59:08;;;;;;;3.53;1.20;;;16.10;99.90;;;;;;4935845;29;20216;-79
2023/03/21 13:01:37;;;;;;;2.33;1.17;;;16.10;99.90;;;;;;4935588;29;20208;-71
2023/03/21 13:04:31;;;;;;;1.70;0.70;;;16.20;99.90;;;;;;4935798;29;20228;-70
2023/03/21 13:07:01;;;;;;;3.13;1.07;;;16.30;99.90;;;;;;4939192;29;20311;-69
2023/03/21 13:09:34;;;;;;;3.13;1.23;;;16.30;99.90;;;;;;4940406;29;20201;-70
2023/03/21 13:12:07;;;;;;;4.13;1.50;;;16.40;99.90;;;;;;4938836;29;20204;-70
2023/03/21 13:14:39;;;;;;;3.10;1.67;;;16.40;99.90;;;;;;4936937;29;20229;-71
2023/03/21 13:17:11;;;;;;;2.97;1.60;;;16.40;99.90;;;;;;4938010;29;20213;-71
2023/03/21 13:19:44;;;;;;;5.87;1.80;;;16.30;99.90;;;;;;4936980;29;20232;-77
2023/03/21 13:22:21;;;;;;;3.50;1.63;;;16.20;99.90;;;;;;4937928;29;20224;-76
2023/03/21 13:24:49;;;;;;;4.33;1.53;;;16.10;99.90;;;;;;4936218;29;20239;-77
2023/03/21 13:27:26;;;;;;;3.33;1.77;;;16.20;99.90;;;;;;4935317;29;20244;-75
2023/03/21 13:29:58;;;;;;;3.23;1.50;;;16.40;99.90;;;;;;4935117;29;20240;-70
2023/03/21 13:32:30;;;;;;;2.97;1.40;;;16.50;99.90;;;;;;4935018;29;20209;-76
2023/03/21 13:34:59;;;;;;;3.03;1.60;;;16.60;99.90;;;;;;4935134;29;20229;-71
2023/03/21 13:37:32;;;;;;;5.67;1.87;;;16.20;99.90;;;;;;4935232;29;20212;-78
2023/03/21 13:40:08;;;;;;;3.93;2.10;;;16.00;99.90;;;;;;4935912;29;20217;-74
2023/03/21 13:42:35;;;;;;;2.70;2.00;;;15.90;99.90;;;;;;4938751;29;20224;-73
2023/03/21 13:45:09;;;;;;;3.80;1.83;;;15.90;99.90;;;;;;4938568;29;20256;-76
2023/03/21 13:47:41;;;;;;;2.43;1.40;;;15.80;99.90;;;;;;4938772;29;20236;-72
2023/03/21 13:50:27;;;;;;;4.47;1.90;;;15.60;99.90;;;;;;4938653;29;20219;-70
2023/03/21 13:53:29;;;;;;;5.33;2.00;;;15.60;99.90;;;;;;4933968;29;20660;-72
2023/03/21 13:56:24;;;;;;;2.80;1.83;;;15.50;99.90;;;;;;4938047;29;20212;-74
2023/03/21 13:58:59;;;;;;;3.93;1.63;;;15.50;99.90;;;;;;4937803;29;20707;-69
2023/03/21 14:01:31;;;;;;;3.50;1.50;;;15.90;99.90;;;;;;4938254;29;20239;-70
2023/03/21 14:04:10;;;;;;;4.03;1.67;;;15.90;99.90;;;;;;4919559;29;20234;-75
2023/03/21 14:06:47;;;;;;;3.80;1.87;;;15.90;99.90;;;;;;4919659;29;20565;-75
2023/03/21 14:09:22;;;;;;;2.70;1.63;;;16.10;99.90;;;;;;4919473;29;20240;-76
2023/03/21 14:11:51;;;;;;;3.40;2.00;;;16.00;99.90;;;;;;4920029;29;20219;-77
2023/03/21 14:14:20;;;;;;;4.10;1.93;;;15.90;99.90;;;;;;4919900;29;20234;-78
2023/03/21 14:16:47;;;;;;;2.30;1.67;;;15.90;99.90;;;;;;4920145;29;20213;-76
2023/03/21 14:19:14;;;;;;;1.87;1.30;;;15.80;99.90;;;;;;4919061;29;20214;-74
2023/03/21 14:21:50;;;;;;;3.13;1.20;;;15.90;99.90;;;;;;4918972;29;20214;-72
2023/03/21 14:24:19;;;;;;;2.73;1.60;;;15.80;99.90;;;;;;4919683;29;20723;-77
2023/03/21 14:26:49;;;;;;;3.27;1.47;;;15.90;99.90;;;;;;4918681;29;20220;-73
2023/03/21 14:29:21;;;;;;;2.90;1.40;;;16.00;99.90;;;;;;4918668;29;20245;-76
2023/03/21 14:31:48;;;;;;;3.10;1.43;;;16.00;99.90;;;;;;4918494;29;20210;-72
2023/03/21 14:34:16;;;;;;;2.07;1.37;;;15.80;99.90;;;;;;4918643;29;20238;-78
2023/03/21 14:36:45;;;;;;;4.27;1.23;;;15.60;99.90;;;;;;4918655;29;20216;-76
2023/03/21 14:39:20;;;;;;;3.20;1.37;;;15.40;99.90;;;;;;4918787;29;20213;-77
2023/03/21 14:41:49;;;;;;;3.43;1.30;;;15.20;99.90;;;;;;4918604;29;20213;-76
2023/03/21 14:44:24;;;;;;;2.30;1.40;;;15.10;99.90;;;;;;4918334;29;20226;-77
2023/03/21 14:46:51;;;;;;;3.80;1.40;;;15.20;99.90;;;;;;4918302;29;20205;-77
2023/03/21 14:49:21;;;;;;;2.23;1.50;;;15.00;99.90;;;;;;4918142;29;20241;-72
2023/03/21 14:51:50;;;;;;;2.10;1.43;;;15.00;99.90;;;;;;4918391;29;20213;-76
2023/03/21 14:54:19;;;;;;;2.43;1.40;;;15.00;99.90;;;;;;4942570;23;20231;-71
2023/03/21 14:56:50;;;;;;;2.40;1.47;;;15.10;99.90;;;;;;4956177;28;20294;-71
2023/03/21 14:59:20;;;;;;;2.80;1.77;;;15.10;99.90;;;;;;4955958;28;20247;-73
2023/03/21 15:01:49;;;;;;;3.90;1.77;;;15.10;99.90;;;;;;4956387;28;20289;-72
2023/03/21 15:04:17;;;;;;;2.13;1.47;;;14.90;99.90;;;;;;4956268;28;20314;-73
2023/03/21 15:06:52;;;;;;;1.60;1.17;;;15.00;99.90;;;;;;4956082;28;20212;-72
2023/03/21 15:09:23;;;;;;;2.50;1.20;;;14.90;99.90;;;;;;4955967;28;20234;-73
2023/03/21 15:11:52;;;;;;;4.53;1.27;;;15.00;99.90;;;;;;4956012;28;20237;-72
2023/03/21 15:14:24;;;;;;;3.63;1.30;;;15.20;99.90;;;;;;4956373;28;20239;-73
2023/03/21 15:16:52;;;;;;;2.53;1.17;;;15.20;99.90;;;;;;4956000;28;20270;-73
2023/03/21 15:19:25;;;;;;;2.00;1.07;;;15.20;99.90;;;;;;4955806;28;20216;-72
2023/03/21 15:21:55;;;;;;;3.70;1.40;;;14.90;99.90;;;;;;4955702;28;20302;-72
2023/03/21 15:24:28;;;;;;;2.30;1.43;;;15.00;99.90;;;;;;4956247;28;20238;-72
2023/03/21 15:26:59;;;;;;;5.87;1.60;;;14.90;99.90;;;;;;4955844;28;20212;-72
2023/03/21 15:29:26;;;;;;;5.03;2.00;;;14.90;99.90;;;;;;4955330;28;20236;-72
2023/03/21 15:31:54;;;;;;;2.33;1.60;;;14.90;99.90;;;;;;4955777;28;20216;-71
2023/03/21 15:34:23;;;;;;;4.23;2.00;;;14.60;99.90;;;;;;4955562;28;20785;-72
2023/03/21 15:36:54;;;;;;;4.50;1.90;;;14.50;99.90;;;;;;4955470;28;20566;-72
2023/03/21 15:39:22;;;;;;;3.60;1.70;;;14.30;99.90;;;;;;4955709;28;20211;-72
2023/03/21 15:42:03;;;;;;;2.87;1.80;;;14.20;99.90;;;;;;4955699;28;20240;-71
2023/03/21 15:44:31;;;;;;;5.63;1.93;;;14.20;99.90;;;;;;4955464;28;20228;-72
2023/03/21 15:46:58;;;;;;;2.80;1.80;;;14.40;99.90;;;;;;4955092;28;20574;-72
2023/03/21 15:49:27;;;;;;;6.03;1.90;;;14.40;99.90;;;;;;4955289;28;20250;-72
2023/03/21 15:51:58;;;;;;;2.57;1.70;;;14.30;99.90;;;;;;4955324;28;20212;-71
2023/03/21 15:54:28;;;;;;;3.63;1.67;;;14.20;99.90;;;;;;4955290;28;20259;-71
2023/03/21 15:56:56;;;;;;;2.17;1.73;;;14.30;99.90;;;;;;4955340;28;20230;-72
2023/03/21 15:59:28;;;;;;;3.27;1.70;;;14.20;99.90;;;;;;4955305;28;20259;-72
2023/03/21 16:01:55;;;;;;;3.63;1.80;;;14.10;99.90;;;;;;4955048;28;20212;-73
2023/03/21 16:04:22;;;;;;;3.17;1.60;;;14.00;99.90;;;;;;4954888;28;20238;-71
2023/03/21 16:06:57;;;;;;;4.53;1.87;;;13.90;99.90;;;;;;4955369;28;20238;-72
2023/03/21 16:09:24;;;;;;;3.73;2.20;;;13.80;99.90;;;;;;4955004;28;20290;-72
2023/03/21 16:11:52;;;;;;;5.27;2.27;;;13.70;99.90;;;;;;4954878;28;20204;-72
2023/03/21 16:14:20;;;;;;;3.93;2.27;;;13.50;99.90;;;;;;4954843;28;20224;-72
2023/03/21 16:16:49;;;;;;;5.97;2.30;;;13.40;99.90;;;;;;4955671;28;20204;-72
2023/03/21 16:19:16;;;;;;;5.73;2.20;;;13.40;99.90;;;;;;4951123;28;20223;-72
2023/03/21 16:21:44;;;;;;;3.60;2.57;;;13.40;99.90;;;;;;4950800;28;20216;-72
2023/03/21 16:24:12;;;;;;;7.43;2.10;;;13.40;99.90;;;;;;4952111;28;20282;-76
2023/03/21 16:26:44;;;;;;;4.40;2.37;;;13.40;99.90;;;;;;4953554;28;20212;-73
2023/03/21 16:29:14;;;;;;;3.63;2.37;;;13.30;99.90;;;;;;4952693;28;20326;-72
2023/03/21 16:31:41;;;;;;;5.80;2.70;;;13.40;99.90;;;;;;4953196;28;20295;-76
2023/03/21 16:34:11;;;;;;;3.93;2.77;;;13.40;99.90;;;;;;4953622;28;20228;-73
2023/03/21 16:36:40;;;;;;;3.77;2.77;;;13.50;99.90;;;;;;4952130;28;20200;-72
2023/03/21 16:39:17;;;;;;;5.07;2.97;;;13.40;99.90;;;;;;4953448;28;20208;-72
2023/03/21 16:41:45;;;;;;;5.30;3.10;;;13.40;99.90;;;;;;4953587;28;20207;-73
2023/03/21 16:44:11;;;;;;;7.83;3.87;;;13.50;99.90;;;;;;4952792;28;20242;-72
2023/03/21 16:46:38;;;;;;;8.60;4.13;;;13.50;99.90;;;;;;4953381;28;20239;-74
2023/03/21 16:49:05;;;;;;;9.67;4.20;;;13.50;99.90;;;;;;4952630;28;20327;-72
2023/03/21 16:51:35;;;;;;;11.90;5.00;;;13.50;99.90;;;;;;4952481;28;20686;-74
2023/03/21 16:54:03;;;;;;;8.57;4.07;;;13.50;99.90;;;;;;4952813;28;20236;-71
2023/03/21 16:56:34;;;;;;;10.33;4.50;;;13.50;99.90;;;;;;4952864;28;20207;-72
2023/03/21 16:59:01;;;;;;;9.83;4.87;;;13.50;99.90;;;;;;4952244;28;20295;-73
2023/03/21 17:01:28;;;;;;;7.47;3.33;;;13.50;99.90;;;;;;4953045;28;20212;-73
2023/03/21 17:03:56;;;;;;;11.67;4.23;;;13.50;99.90;;;;;;4953049;28;20287;-75
2023/03/21 17:06:25;;;;;;;6.43;3.20;;;13.40;99.90;;;;;;4952092;28;20208;-71
2023/03/21 17:08:54;;;;;;;7.47;2.80;;;13.40;99.90;;;;;;4951400;29;20711;-71
2023/03/21 17:11:24;;;;;;;7.17;3.40;;;13.20;99.90;;;;;;4952740;28;20219;-73
2023/03/21 17:13:53;;;;;;;7.53;3.40;;;13.20;99.90;;;;;;4953117;28;20238;-76
2023/03/21 17:16:22;;;;;;;9.03;3.53;;;13.20;99.90;;;;;;4956672;28;20685;-75
2023/03/21 17:18:49;;;;;;;6.60;3.13;;;13.20;99.90;;;;;;4956045;28;20208;-71
2023/03/21 17:21:18;;;;;;;9.80;3.40;;;13.30;99.90;;;;;;4956065;28;20214;-75
2023/03/21 17:23:45;;;;;;;8.30;3.53;;;13.30;99.90;;;;;;4955408;28;21004;-73
2023/03/21 17:26:21;;;;;;;7.57;3.00;;;13.30;99.90;;;;;;4954067;28;20212;-73
2023/03/21 17:28:48;;;;;;;6.60;2.83;;;13.30;99.90;;;;;;4954373;28;20318;-74
2023/03/21 17:31:17;;;;;;;7.50;3.20;;;13.40;99.90;;;;;;4956859;28;20299;-74
2023/03/21 17:33:44;;;;;;;7.47;3.60;;;13.30;99.90;;;;;;4953809;28;20327;-73
2023/03/21 17:36:14;;;;;;;8.77;3.57;;;13.20;99.90;;;;;;4955402;28;20738;-73
2023/03/21 17:38:42;;;;;;;7.00;3.63;;;13.20;99.90;;;;;;4956097;28;20701;-73
2023/03/21 17:41:13;;;;;;;5.63;2.77;;;13.20;99.90;;;;;;4956406;28;20303;-74
2023/03/21 17:43:40;;;;;;;9.27;3.00;;;13.20;99.90;;;;;;4955558;28;20224;-75
2023/03/21 17:46:09;;;;;;;4.50;2.70;;;13.20;99.90;;;;;;4955882;28;20292;-73
2023/03/21 17:48:36;;;;;;;5.27;2.53;;;13.10;99.90;;;;;;4956150;28;20240;-74
2023/03/21 17:51:04;;;;;;;4.87;2.40;;;13.10;99.90;;;;;;4955508;28;20214;-73
2023/03/21 17:53:30;;;;;;;5.67;2.40;;;13.10;99.90;;;;;;4955263;28;20204;-74
2023/03/21 17:55:57;;;;;;;3.70;2.10;;;13.10;99.90;;;;;;4955867;28;20582;-73
2023/03/21 17:58:26;;;;;;;5.17;2.20;;;13.10;99.90;;;;;;4954911;28;20243;-73
2023/03/21 18:00:52;;;;;;;4.13;1.90;;;13.10;99.90;;;;;;4956096;28;20272;-74
2023/03/21 18:03:19;;;;;;;2.67;1.60;;;13.10;99.90;;;;;;4955686;28;20295;-73
2023/03/21 18:05:46;;;;;;;6.43;1.90;;;13.10;99.90;;;;;;4955208;28;20212;-74
2023/03/21 18:08:13;;;;;;;4.93;1.57;;;13.10;99.90;;;;;;4955681;28;20215;-74
2023/03/21 18:10:41;;;;;;;2.70;1.40;;;13.10;99.90;;;;;;4955557;28;20296;-74
2023/03/21 18:13:08;;;;;;;2.33;1.30;;;13.10;99.90;;;;;;4954250;28;20427;-75
2023/03/21 18:15:36;;;;;;;2.13;1.40;;;13.10;99.90;;;;;;4955566;28;20231;-74
2023/03/21 18:18:03;;;;;;;2.27;1.40;;;13.10;99.90;;;;;;4955258;28;20207;-77
2023/03/21 18:20:30;;;;;;;3.40;2.13;;;13.00;99.90;;;;;;4955023;28;20236;-74
2023/03/21 18:22:57;;;;;;;1.90;1.43;;;13.00;99.90;;;;;;4955272;28;20208;-76
2023/03/21 18:25:24;;;;;;;2.63;1.60;;;13.00;99.90;;;;;;4954841;28;20326;-76
2023/03/21 18:27:50;;;;;;;3.57;1.50;;;13.10;99.90;;;;;;4955065;28;20628;-76
2023/03/21 18:30:19;;;;;;;3.43;1.50;;;13.10;99.90;;;;;;4955673;28;20241;-73
2023/03/21 18:32:47;;;;;;;3.03;1.80;;;13.10;99.90;;;;;;4952065;28;20242;-74
2023/03/21 18:35:16;;;;;;;3.50;1.67;;;13.10;99.90;;;;;;4954375;28;20238;-74
2023/03/21 18:37:43;;;;;;;3.83;1.60;;;13.10;99.90;;;;;;4956220;28;20204;-78
2023/03/21 18:40:11;;;;;;;3.03;1.67;;;13.10;99.90;;;;;;4947092;28;20689;-74
2023/03/21 18:42:40;;;;;;;3.60;1.80;;;13.10;99.90;;;;;;4956626;28;20212;-75
2023/03/21 18:45:10;;;;;;;2.83;1.60;;;13.00;99.90;;;;;;4956503;28;20770;-73
2023/03/21 18:47:37;;;;;;;2.27;1.43;;;13.00;99.90;;;;;;4956632;28;20300;-73
2023/03/21 18:50:07;;;;;;;3.57;1.90;;;13.00;99.90;;;;;;4956041;28;20242;-75
2023/03/21 18:52:35;;;;;;;2.13;1.20;;;13.00;99.90;;;;;;4955979;28;20208;-74
2023/03/21 18:55:02;;;;;;;4.57;1.87;;;12.90;99.90;;;;;;4956412;28;20239;-75
2023/03/21 18:57:29;;;;;;;3.90;1.87;;;13.00;99.90;;;;;;4956376;28;20208;-75
2023/03/21 18:59:56;;;;;;;3.73;1.43;;;13.00;99.90;;;;;;4955877;28;20208;-75
2023/03/21 19:02:23;;;;;;;3.27;1.80;;;12.90;99.90;;;;;;4956165;28;20294;-75
2023/03/21 19:04:50;;;;;;;2.97;1.57;;;13.00;99.90;;;;;;4955944;28;20234;-75
2023/03/21 19:07:18;;;;;;;3.23;1.50;;;13.00;99.90;;;;;;4956109;28;20208;-74
2023/03/21 19:09:45;;;;;;;2.73;1.60;;;13.00;99.90;;;;;;4955813;28;20598;-76
2023/03/21 19:12:12;;;;;;;2.87;1.87;;;13.00;99.90;;;;;;4956150;28;20220;-75
2023/03/21 19:14:39;;;;;;;3.67;1.83;;;12.90;99.90;;;;;;4955990;28;20223;-75
2023/03/21 19:17:07;;;;;;;4.87;2.17;;;13.00;99.90;;;;;;4956634;28;20231;-77
2023/03/21 19:19:33;;;;;;;3.20;1.90;;;13.10;99.90;;;;;;4955949;28;20216;-73
2023/03/21 19:22:00;;;;;;;3.87;1.87;;;13.10;99.90;;;;;;4955409;28;20674;-76
2023/03/21 19:24:28;;;;;;;3.40;1.77;;;13.10;99.90;;;;;;4956358;28;20232;-75
2023/03/21 19:26:55;;;;;;;3.60;1.80;;;13.10;99.90;;;;;;4956360;28;20218;-77
2023/03/21 19:29:22;;;;;;;5.23;2.20;;;13.10;99.90;;;;;;4957275;28;20263;-73
2023/03/21 19:31:50;;;;;;;4.77;1.93;;;13.10;99.90;;;;;;4955775;28;20208;-74
2023/03/21 19:34:17;;;;;;;2.87;2.00;;;13.10;99.90;;;;;;4956381;28;20223;-73
2023/03/21 19:36:44;;;;;;;3.53;1.90;;;13.10;99.90;;;;;;4955923;28;20239;-75
2023/03/21 19:39:12;;;;;;;2.83;1.70;;;13.10;99.90;;;;;;4954312;28;20220;-74
2023/03/21 19:41:40;;;;;;;3.53;2.17;;;13.10;99.90;;;;;;4955359;28;20207;-73
2023/03/21 19:44:07;;;;;;;3.83;1.93;;;13.10;99.90;;;;;;4954407;28;20319;-76
2023/03/21 19:46:33;;;;;;;2.83;1.90;;;13.20;99.90;;;;;;4954885;28;20208;-78
2023/03/21 19:49:04;;;;;;;4.63;1.93;;;13.20;99.90;;;;;;4954920;28;20242;-76
2023/03/21 19:51:31;;;;;;;4.10;2.50;;;13.20;99.90;;;;;;4955663;28;20215;-77
2023/03/21 19:53:58;;;;;;;4.33;2.40;;;13.20;99.90;;;;;;4954912;28;20569;-75
2023/03/21 19:56:25;;;;;;;3.20;2.23;;;13.20;99.90;;;;;;4955331;28;20675;-74
2023/03/21 19:58:53;;;;;;;3.33;2.30;;;13.20;99.90;;;;;;4955215;28;20211;-78
2023/03/21 20:01:20;;;;;;;4.30;2.17;;;13.30;99.90;;;;;;4955415;28;20219;-81
2023/03/21 20:03:47;;;;;;;2.70;1.87;;;13.20;99.90;;;;;;4951118;28;20228;-77
2023/03/21 20:06:15;;;;;;;3.37;1.73;;;13.20;99.90;;;;;;4944040;28;20216;-77
2023/03/21 20:08:41;;;;;;;3.23;2.00;;;13.20;99.90;;;;;;4944964;29;20286;-75
2023/03/21 20:11:08;;;;;;;5.37;1.70;;;13.20;99.90;;;;;;4946019;28;20258;-76
2023/03/21 20:13:35;;;;;;;2.67;1.50;;;13.20;99.90;;;;;;4946321;28;20227;-76
2023/03/21 20:16:03;;;;;;;3.27;1.57;;;13.20;99.90;;;;;;4943649;28;20208;-77
2023/03/21 20:18:32;;;;;;;2.50;1.60;;;13.20;99.90;;;;;;4951993;28;20679;-74
2023/03/21 20:20:59;;;;;;;3.43;2.00;;;13.20;99.90;;;;;;4944305;28;20291;-74
2023/03/21 20:23:26;;;;;;;3.93;1.83;;;13.30;99.90;;;;;;4949969;28;20692;-75
2023/03/21 20:25:52;;;;;;;3.97;2.43;;;13.30;99.90;;;;;;4939778;28;20215;-74
2023/03/21 20:28:19;;;;;;;4.70;2.30;;;13.40;99.90;;;;;;4947011;28;20299;-75
2023/03/21 20:30:48;;;;;;;4.53;2.20;;;13.40;99.90;;;;;;4945455;28;20235;-75
2023/03/21 20:33:16;;;;;;;4.73;1.97;;;13.30;99.90;;;;;;4949870;28;20657;-75
2023/03/21 20:35:43;;;;;;;3.20;2.00;;;13.20;99.90;;;;;;4943878;29;20716;-77
2023/03/21 20:38:12;;;;;;;4.17;1.77;;;13.10;99.90;;;;;;4946186;28;20216;-77
2023/03/21 20:40:39;;;;;;;3.33;1.50;;;13.00;99.90;;;;;;4939784;28;20212;-73
2023/03/21 20:43:07;;;;;;;2.53;1.60;;;12.90;99.90;;;;;;4947803;28;20264;-75
2023/03/21 20:45:33;;;;;;;4.30;2.17;;;12.90;99.90;;;;;;4938155;28;20224;-76
2023/03/21 20:48:00;;;;;;;4.57;2.17;;;12.90;99.90;;;;;;4945011;28;20215;-75
2023/03/21 20:50:31;;;;;;;3.80;1.43;;;12.80;99.90;;;;;;4954015;28;20235;-80
2023/03/21 20:52:58;;;;;;;3.87;1.20;;;12.80;99.90;;;;;;4945027;28;20292;-75
2023/03/21 20:55:26;;;;;;;3.27;1.20;;;12.80;99.90;;;;;;4955650;28;20286;-75
2023/03/21 20:57:53;;;;;;;4.10;0.90;;;12.80;99.90;;;;;;4951438;28;20632;-80
2023/03/21 21:00:21;;;;;;;3.43;1.20;;;12.80;99.90;;;;;;4956420;28;20603;-75
2023/03/21 21:02:49;;;;;;;2.87;1.37;;;12.80;99.90;;;;;;4953284;29;20207;-75
2023/03/21 21:05:17;;;;;;;2.73;1.43;;;12.80;99.90;;;;;;4955467;28;20314;-74
2023/03/21 21:07:47;;;;;;;2.30;1.40;;;12.80;99.90;;;;;;4952771;28;20299;-73
2023/03/21 21:10:17;;;;;;;4.13;1.50;;;12.80;99.90;;;;;;4953605;28;20236;-75
2023/03/21 21:12:45;;;;;;;4.73;1.70;;;12.80;99.90;;;;;;4944001;28;20214;-73
2023/03/21 21:15:15;;;;;;;3.20;1.30;;;12.90;99.90;;;;;;4951586;28;20328;-74
2023/03/21 21:17:42;;;;;;;3.33;1.13;;;12.90;99.90;;;;;;4940592;29;20240;-73
2023/03/21 21:20:15;;;;;;;7.50;1.80;;;12.90;99.90;;;;;;4953442;28;20211;-77
2023/03/21 21:22:43;;;;;;;3.30;1.70;;;12.90;99.90;;;;;;4952430;29;20212;-74
2023/03/21 21:25:11;;;;;;;2.97;1.50;;;12.90;99.90;;;;;;4949900;28;20229;-75
2023/03/21 21:27:38;;;;;;;3.57;1.60;;;12.80;99.90;;;;;;4952997;28;20208;-79
2023/03/21 21:30:07;;;;;;;3.80;2.00;;;12.70;99.90;;;;;;4946038;28;20592;-77
2023/03/21 21:32:33;;;;;;;6.37;1.60;;;12.70;99.90;;;;;;4938549;29;20244;-74
